sensor_id;sensor_type;location;lat;lon;timestamp;P1;durP1;ratioP1;P2;durP2;ratioP2
77417;SDS011;66490;51.484;0.026;2024-02-21T00:01:45;14.23;;;2.97;;
77417;SDS011;66490;51.484;0.026;2024-02-21T00:04:32;19.42;;;3.30;;
77417;SDS011;66490;51.484;0.026;2024-02-21T00:07:29;14.35;;;2.70;;
77417;SDS011;66490;51.484;0.026;2024-02-21T00:10:14;12.55;;;3.53;;
77417;SDS011;66490;51.484;0.026;2024-02-21T00:16:57;19.55;;;2.95;;
77417;SDS011;66490;51.484;0.026;2024-02-21T00:19:51;16.17;;;3.20;;
77417;SDS011;66490;51.484;0.026;2024-02-21T00:22:46;18.02;;;3.00;;
77417;SDS011;66490;51.484;0.026;2024-02-21T00:25:48;11.13;;;3.08;;
77417;SDS011;66490;51.484;0.026;2024-02-21T00:28:32;13.90;;;2.73;;
77417;SDS011;66490;51.484;0.026;2024-02-21T00:31:20;13.32;;;2.53;;
77417;SDS011;66490;51.484;0.026;2024-02-21T00:34:04;16.65;;;3.20;;
77417;SDS011;66490;51.484;0.026;2024-02-21T00:36:48;20.52;;;3.13;;
77417;SDS011;66490;51.484;0.026;2024-02-21T00:39:33;20.23;;;4.43;;
77417;SDS011;66490;51.484;0.026;2024-02-21T00:42:17;16.47;;;3.50;;
77417;SDS011;66490;51.484;0.026;2024-02-21T00:45:04;15.38;;;3.30;;
77417;SDS011;66490;51.484;0.026;2024-02-21T00:47:51;14.10;;;3.70;;
77417;SDS011;66490;51.484;0.026;2024-02-21T00:50:44;12.95;;;3.38;;
77417;SDS011;66490;51.484;0.026;2024-02-21T00:53:32;12.43;;;3.15;;
77417;SDS011;66490;51.484;0.026;2024-02-21T00:56:22;14.03;;;2.80;;
77417;SDS011;66490;51.484;0.026;2024-02-21T00:59:09;15.18;;;3.60;;
77417;SDS011;66490;51.484;0.026;2024-02-21T01:01:53;14.38;;;3.20;;
77417;SDS011;66490;51.484;0.026;2024-02-21T01:04:39;20.80;;;3.13;;
77417;SDS011;66490;51.484;0.026;2024-02-21T01:07:26;13.70;;;3.28;;
77417;SDS011;66490;51.484;0.026;2024-02-21T01:10:13;16.20;;;3.10;;
77417;SDS011;66490;51.484;0.026;2024-02-21T01:13:00;14.73;;;2.58;;
77417;SDS011;66490;51.484;0.026;2024-02-21T01:15:47;18.08;;;3.58;;
77417;SDS011;66490;51.484;0.026;2024-02-21T01:18:34;19.25;;;2.80;;
77417;SDS011;66490;51.484;0.026;2024-02-21T01:21:21;11.55;;;2.53;;
77417;SDS011;66490;51.484;0.026;2024-02-21T01:24:05;18.73;;;3.17;;
77417;SDS011;66490;51.484;0.026;2024-02-21T01:26:49;14.00;;;2.38;;
77417;SDS011;66490;51.484;0.026;2024-02-21T01:29:33;18.35;;;3.15;;
77417;SDS011;66490;51.484;0.026;2024-02-21T01:32:17;16.58;;;2.20;;
77417;SDS011;66490;51.484;0.026;2024-02-21T01:35:01;14.02;;;3.35;;
77417;SDS011;66490;51.484;0.026;2024-02-21T01:37:45;12.27;;;1.97;;
77417;SDS011;66490;51.484;0.026;2024-02-21T01:40:29;12.10;;;1.77;;
77417;SDS011;66490;51.484;0.026;2024-02-21T01:43:19;12.43;;;2.22;;
77417;SDS011;66490;51.484;0.026;2024-02-21T01:46:07;10.65;;;1.73;;
77417;SDS011;66490;51.484;0.026;2024-02-21T01:49:04;15.52;;;2.95;;
77417;SDS011;66490;51.484;0.026;2024-02-21T01:51:48;13.07;;;2.80;;
77417;SDS011;66490;51.484;0.026;2024-02-21T01:54:33;10.30;;;2.28;;
77417;SDS011;66490;51.484;0.026;2024-02-21T01:57:18;14.63;;;2.72;;
77417;SDS011;66490;51.484;0.026;2024-02-21T02:00:02;13.50;;;2.53;;
77417;SDS011;66490;51.484;0.026;2024-02-21T02:02:49;17.63;;;3.10;;
77417;SDS011;66490;51.484;0.026;2024-02-21T02:05:33;16.33;;;2.13;;
77417;SDS011;66490;51.484;0.026;2024-02-21T02:08:18;13.13;;;2.72;;
77417;SDS011;66490;51.484;0.026;2024-02-21T02:11:03;12.23;;;2.35;;
77417;SDS011;66490;51.484;0.026;2024-02-21T02:13:47;16.88;;;2.85;;
77417;SDS011;66490;51.484;0.026;2024-02-21T02:16:32;14.48;;;2.78;;
77417;SDS011;66490;51.484;0.026;2024-02-21T02:19:16;11.60;;;2.13;;
77417;SDS011;66490;51.484;0.026;2024-02-21T02:22:01;14.43;;;2.40;;
77417;SDS011;66490;51.484;0.026;2024-02-21T02:24:49;15.73;;;2.78;;
77417;SDS011;66490;51.484;0.026;2024-02-21T02:27:40;12.00;;;2.10;;
77417;SDS011;66490;51.484;0.026;2024-02-21T02:30:25;12.23;;;3.00;;
77417;SDS011;66490;51.484;0.026;2024-02-21T02:33:12;15.97;;;2.20;;
77417;SDS011;66490;51.484;0.026;2024-02-21T02:35:57;12.35;;;2.17;;
77417;SDS011;66490;51.484;0.026;2024-02-21T02:38:42;14.77;;;3.15;;
77417;SDS011;66490;51.484;0.026;2024-02-21T02:41:29;19.42;;;3.45;;
77417;SDS011;66490;51.484;0.026;2024-02-21T02:44:13;17.35;;;3.40;;
77417;SDS011;66490;51.484;0.026;2024-02-21T02:47:00;16.93;;;3.20;;
77417;SDS011;66490;51.484;0.026;2024-02-21T02:49:46;13.48;;;2.30;;
77417;SDS011;66490;51.484;0.026;2024-02-21T02:52:34;21.10;;;3.03;;
77417;SDS011;66490;51.484;0.026;2024-02-21T02:55:18;24.30;;;3.97;;
77417;SDS011;66490;51.484;0.026;2024-02-21T02:58:09;16.02;;;3.28;;
77417;SDS011;66490;51.484;0.026;2024-02-21T03:00:54;15.60;;;2.90;;
77417;SDS011;66490;51.484;0.026;2024-02-21T03:03:38;12.23;;;2.72;;
77417;SDS011;66490;51.484;0.026;2024-02-21T03:06:22;19.80;;;3.05;;
77417;SDS011;66490;51.484;0.026;2024-02-21T03:09:09;14.25;;;2.30;;
77417;SDS011;66490;51.484;0.026;2024-02-21T03:11:56;9.63;;;2.75;;
77417;SDS011;66490;51.484;0.026;2024-02-21T03:14:46;12.60;;;2.67;;
77417;SDS011;66490;51.484;0.026;2024-02-21T03:17:33;12.98;;;2.63;;
77417;SDS011;66490;51.484;0.026;2024-02-21T03:20:20;15.50;;;2.70;;
77417;SDS011;66490;51.484;0.026;2024-02-21T03:23:04;17.10;;;2.85;;
77417;SDS011;66490;51.484;0.026;2024-02-21T03:25:49;14.35;;;3.25;;
77417;SDS011;66490;51.484;0.026;2024-02-21T03:28:33;13.27;;;2.40;;
77417;SDS011;66490;51.484;0.026;2024-02-21T03:31:16;15.57;;;2.72;;
77417;SDS011;66490;51.484;0.026;2024-02-21T03:34:03;10.35;;;2.05;;
77417;SDS011;66490;51.484;0.026;2024-02-21T03:36:47;14.50;;;3.20;;
77417;SDS011;66490;51.484;0.026;2024-02-21T03:39:31;11.90;;;2.55;;
77417;SDS011;66490;51.484;0.026;2024-02-21T03:42:16;12.50;;;2.47;;
77417;SDS011;66490;51.484;0.026;2024-02-21T03:45:00;20.38;;;2.53;;
77417;SDS011;66490;51.484;0.026;2024-02-21T03:47:44;10.43;;;2.20;;
77417;SDS011;66490;51.484;0.026;2024-02-21T03:50:28;16.58;;;2.60;;
77417;SDS011;66490;51.484;0.026;2024-02-21T03:53:13;13.13;;;2.25;;
77417;SDS011;66490;51.484;0.026;2024-02-21T03:55:57;13.87;;;2.33;;
77417;SDS011;66490;51.484;0.026;2024-02-21T03:58:46;15.88;;;2.60;;
77417;SDS011;66490;51.484;0.026;2024-02-21T04:01:30;10.35;;;2.20;;
77417;SDS011;66490;51.484;0.026;2024-02-21T04:04:14;10.00;;;2.40;;
77417;SDS011;66490;51.484;0.026;2024-02-21T04:06:58;17.35;;;2.65;;
77417;SDS011;66490;51.484;0.026;2024-02-21T04:09:42;12.70;;;2.13;;
77417;SDS011;66490;51.484;0.026;2024-02-21T04:12:26;15.15;;;2.40;;
77417;SDS011;66490;51.484;0.026;2024-02-21T04:15:10;17.13;;;2.83;;
77417;SDS011;66490;51.484;0.026;2024-02-21T04:17:54;14.00;;;2.55;;
77417;SDS011;66490;51.484;0.026;2024-02-21T04:20:38;16.90;;;2.25;;
77417;SDS011;66490;51.484;0.026;2024-02-21T04:23:22;12.27;;;2.23;;
77417;SDS011;66490;51.484;0.026;2024-02-21T04:26:06;13.32;;;2.05;;
77417;SDS011;66490;51.484;0.026;2024-02-21T04:28:50;14.52;;;2.60;;
77417;SDS011;66490;51.484;0.026;2024-02-21T04:31:36;10.88;;;1.83;;
77417;SDS011;66490;51.484;0.026;2024-02-21T04:34:21;11.10;;;2.28;;
77417;SDS011;66490;51.484;0.026;2024-02-21T04:37:05;11.27;;;2.00;;
77417;SDS011;66490;51.484;0.026;2024-02-21T04:39:49;10.70;;;2.22;;
77417;SDS011;66490;51.484;0.026;2024-02-21T04:42:33;11.50;;;2.00;;
77417;SDS011;66490;51.484;0.026;2024-02-21T04:45:17;11.55;;;2.35;;
77417;SDS011;66490;51.484;0.026;2024-02-21T04:48:01;9.23;;;2.17;;
77417;SDS011;66490;51.484;0.026;2024-02-21T04:50:45;17.03;;;2.37;;
77417;SDS011;66490;51.484;0.026;2024-02-21T04:53:29;9.48;;;1.63;;
77417;SDS011;66490;51.484;0.026;2024-02-21T04:56:13;7.40;;;2.22;;
77417;SDS011;66490;51.484;0.026;2024-02-21T04:58:57;13.57;;;2.03;;
77417;SDS011;66490;51.484;0.026;2024-02-21T05:01:41;9.02;;;2.10;;
77417;SDS011;66490;51.484;0.026;2024-02-21T05:04:25;9.70;;;1.77;;
77417;SDS011;66490;51.484;0.026;2024-02-21T05:07:09;11.65;;;1.65;;
77417;SDS011;66490;51.484;0.026;2024-02-21T05:09:55;13.10;;;2.03;;
77417;SDS011;66490;51.484;0.026;2024-02-21T05:12:43;7.18;;;1.45;;
77417;SDS011;66490;51.484;0.026;2024-02-21T05:15:27;8.65;;;1.55;;
77417;SDS011;66490;51.484;0.026;2024-02-21T05:18:11;8.97;;;1.53;;
77417;SDS011;66490;51.484;0.026;2024-02-21T05:20:54;17.45;;;1.92;;
77417;SDS011;66490;51.484;0.026;2024-02-21T05:23:39;10.00;;;1.83;;
77417;SDS011;66490;51.484;0.026;2024-02-21T05:26:26;6.88;;;1.98;;
77417;SDS011;66490;51.484;0.026;2024-02-21T05:29:10;7.88;;;1.52;;
77417;SDS011;66490;51.484;0.026;2024-02-21T05:31:55;10.90;;;1.63;;
77417;SDS011;66490;51.484;0.026;2024-02-21T05:34:42;10.93;;;1.48;;
77417;SDS011;66490;51.484;0.026;2024-02-21T05:37:26;11.90;;;2.63;;
77417;SDS011;66490;51.484;0.026;2024-02-21T05:40:10;6.18;;;1.15;;
77417;SDS011;66490;51.484;0.026;2024-02-21T05:42:57;8.70;;;2.10;;
77417;SDS011;66490;51.484;0.026;2024-02-21T05:45:41;9.80;;;1.60;;
77417;SDS011;66490;51.484;0.026;2024-02-21T05:48:28;14.55;;;1.90;;
77417;SDS011;66490;51.484;0.026;2024-02-21T05:51:15;11.70;;;2.63;;
77417;SDS011;66490;51.484;0.026;2024-02-21T05:54:01;10.43;;;2.58;;
77417;SDS011;66490;51.484;0.026;2024-02-21T05:56:45;8.57;;;2.70;;
77417;SDS011;66490;51.484;0.026;2024-02-21T05:59:29;9.60;;;1.40;;
77417;SDS011;66490;51.484;0.026;2024-02-21T06:02:14;15.63;;;2.10;;
77417;SDS011;66490;51.484;0.026;2024-02-21T06:04:58;13.60;;;2.30;;
77417;SDS011;66490;51.484;0.026;2024-02-21T06:07:42;9.88;;;2.00;;
77417;SDS011;66490;51.484;0.026;2024-02-21T06:10:26;10.23;;;1.90;;
77417;SDS011;66490;51.484;0.026;2024-02-21T06:13:10;12.33;;;2.40;;
77417;SDS011;66490;51.484;0.026;2024-02-21T06:15:54;11.05;;;1.63;;
77417;SDS011;66490;51.484;0.026;2024-02-21T06:18:38;11.65;;;2.70;;
77417;SDS011;66490;51.484;0.026;2024-02-21T06:21:25;10.38;;;2.03;;
77417;SDS011;66490;51.484;0.026;2024-02-21T06:24:14;12.30;;;2.00;;
77417;SDS011;66490;51.484;0.026;2024-02-21T06:26:58;10.13;;;1.80;;
77417;SDS011;66490;51.484;0.026;2024-02-21T06:29:43;9.40;;;1.95;;
77417;SDS011;66490;51.484;0.026;2024-02-21T06:32:26;13.05;;;1.90;;
77417;SDS011;66490;51.484;0.026;2024-02-21T06:35:10;9.82;;;1.88;;
77417;SDS011;66490;51.484;0.026;2024-02-21T06:37:54;6.93;;;2.13;;
77417;SDS011;66490;51.484;0.026;2024-02-21T06:40:38;10.50;;;2.20;;
77417;SDS011;66490;51.484;0.026;2024-02-21T06:43:23;6.18;;;1.42;;
77417;SDS011;66490;51.484;0.026;2024-02-21T06:46:07;5.57;;;1.75;;
77417;SDS011;66490;51.484;0.026;2024-02-21T06:48:51;8.45;;;1.65;;
77417;SDS011;66490;51.484;0.026;2024-02-21T06:51:35;9.05;;;1.48;;
77417;SDS011;66490;51.484;0.026;2024-02-21T06:54:20;6.10;;;1.13;;
77417;SDS011;66490;51.484;0.026;2024-02-21T06:57:04;5.88;;;1.52;;
77417;SDS011;66490;51.484;0.026;2024-02-21T06:59:48;9.57;;;1.70;;
77417;SDS011;66490;51.484;0.026;2024-02-21T07:02:32;9.13;;;1.27;;
77417;SDS011;66490;51.484;0.026;2024-02-21T07:05:16;7.38;;;1.98;;
77417;SDS011;66490;51.484;0.026;2024-02-21T07:08:00;7.87;;;2.10;;
77417;SDS011;66490;51.484;0.026;2024-02-21T07:10:44;4.00;;;1.20;;
77417;SDS011;66490;51.484;0.026;2024-02-21T07:13:28;8.82;;;2.25;;
77417;SDS011;66490;51.484;0.026;2024-02-21T07:16:12;4.65;;;1.35;;
77417;SDS011;66490;51.484;0.026;2024-02-21T07:18:56;6.43;;;1.88;;
77417;SDS011;66490;51.484;0.026;2024-02-21T07:21:40;6.17;;;1.53;;
77417;SDS011;66490;51.484;0.026;2024-02-21T07:24:25;7.18;;;1.60;;
77417;SDS011;66490;51.484;0.026;2024-02-21T07:27:10;6.28;;;1.63;;
77417;SDS011;66490;51.484;0.026;2024-02-21T07:29:56;4.72;;;1.30;;
77417;SDS011;66490;51.484;0.026;2024-02-21T07:32:40;4.55;;;0.93;;
77417;SDS011;66490;51.484;0.026;2024-02-21T07:35:25;8.17;;;1.13;;
77417;SDS011;66490;51.484;0.026;2024-02-21T07:38:08;5.20;;;1.58;;
77417;SDS011;66490;51.484;0.026;2024-02-21T07:40:56;7.22;;;1.95;;
77417;SDS011;66490;51.484;0.026;2024-02-21T07:43:40;5.00;;;1.38;;
77417;SDS011;66490;51.484;0.026;2024-02-21T07:49:45;10.50;;;1.60;;
77417;SDS011;66490;51.484;0.026;2024-02-21T07:52:29;10.18;;;1.35;;
77417;SDS011;66490;51.484;0.026;2024-02-21T07:55:14;5.05;;;1.27;;
77417;SDS011;66490;51.484;0.026;2024-02-21T07:57:58;10.20;;;2.00;;
77417;SDS011;66490;51.484;0.026;2024-02-21T08:00:42;9.50;;;2.88;;
77417;SDS011;66490;51.484;0.026;2024-02-21T08:03:26;12.70;;;2.13;;
77417;SDS011;66490;51.484;0.026;2024-02-21T08:06:11;9.82;;;2.13;;
77417;SDS011;66490;51.484;0.026;2024-02-21T08:08:55;9.10;;;2.10;;
77417;SDS011;66490;51.484;0.026;2024-02-21T08:11:40;11.88;;;2.13;;
77417;SDS011;66490;51.484;0.026;2024-02-21T08:14:25;5.30;;;1.95;;
77417;SDS011;66490;51.484;0.026;2024-02-21T08:17:08;8.30;;;2.17;;
77417;SDS011;66490;51.484;0.026;2024-02-21T08:19:52;10.18;;;1.88;;
77417;SDS011;66490;51.484;0.026;2024-02-21T08:22:39;7.32;;;2.83;;
77417;SDS011;66490;51.484;0.026;2024-02-21T08:25:23;10.73;;;2.70;;
77417;SDS011;66490;51.484;0.026;2024-02-21T08:28:07;11.85;;;2.83;;
77417;SDS011;66490;51.484;0.026;2024-02-21T08:30:59;7.17;;;1.63;;
77417;SDS011;66490;51.484;0.026;2024-02-21T08:37:19;7.93;;;1.98;;
77417;SDS011;66490;51.484;0.026;2024-02-21T08:40:03;8.45;;;1.80;;
77417;SDS011;66490;51.484;0.026;2024-02-21T08:42:52;8.65;;;2.63;;
77417;SDS011;66490;51.484;0.026;2024-02-21T08:45:37;8.57;;;2.00;;
77417;SDS011;66490;51.484;0.026;2024-02-21T08:48:24;11.25;;;2.30;;
77417;SDS011;66490;51.484;0.026;2024-02-21T08:51:09;10.02;;;2.60;;
77417;SDS011;66490;51.484;0.026;2024-02-21T08:53:53;8.85;;;2.20;;
77417;SDS011;66490;51.484;0.026;2024-02-21T08:56:38;8.68;;;2.08;;
77417;SDS011;66490;51.484;0.026;2024-02-21T08:59:22;8.63;;;2.03;;
77417;SDS011;66490;51.484;0.026;2024-02-21T09:02:06;8.60;;;2.00;;
77417;SDS011;66490;51.484;0.026;2024-02-21T09:04:52;8.38;;;2.60;;
77417;SDS011;66490;51.484;0.026;2024-02-21T09:07:36;7.72;;;2.03;;
77417;SDS011;66490;51.484;0.026;2024-02-21T09:10:20;9.60;;;1.92;;
77417;SDS011;66490;51.484;0.026;2024-02-21T09:13:05;7.40;;;1.80;;
77417;SDS011;66490;51.484;0.026;2024-02-21T09:15:49;7.60;;;2.00;;
77417;SDS011;66490;51.484;0.026;2024-02-21T09:18:33;7.57;;;1.85;;
77417;SDS011;66490;51.484;0.026;2024-02-21T09:21:20;7.45;;;1.55;;
77417;SDS011;66490;51.484;0.026;2024-02-21T09:24:07;8.02;;;1.60;;
77417;SDS011;66490;51.484;0.026;2024-02-21T09:26:51;9.10;;;1.50;;
77417;SDS011;66490;51.484;0.026;2024-02-21T09:29:36;6.47;;;1.58;;
77417;SDS011;66490;51.484;0.026;2024-02-21T09:32:20;7.38;;;1.65;;
77417;SDS011;66490;51.484;0.026;2024-02-21T09:35:04;6.88;;;1.88;;
77417;SDS011;66490;51.484;0.026;2024-02-21T09:37:51;6.97;;;1.77;;
77417;SDS011;66490;51.484;0.026;2024-02-21T09:40:37;6.13;;;1.33;;
77417;SDS011;66490;51.484;0.026;2024-02-21T09:43:26;7.70;;;1.65;;
77417;SDS011;66490;51.484;0.026;2024-02-21T09:46:13;13.77;;;2.10;;
77417;SDS011;66490;51.484;0.026;2024-02-21T09:51:55;6.65;;;2.25;;
77417;SDS011;66490;51.484;0.026;2024-02-21T09:54:41;10.47;;;1.60;;
77417;SDS011;66490;51.484;0.026;2024-02-21T09:57:28;6.75;;;1.23;;
77417;SDS011;66490;51.484;0.026;2024-02-21T10:00:13;5.22;;;1.48;;
77417;SDS011;66490;51.484;0.026;2024-02-21T10:03:05;7.93;;;1.58;;
77417;SDS011;66490;51.484;0.026;2024-02-21T10:05:51;7.22;;;1.67;;
77417;SDS011;66490;51.484;0.026;2024-02-21T10:08:35;4.67;;;1.40;;
77417;SDS011;66490;51.484;0.026;2024-02-21T10:11:23;6.30;;;1.20;;
77417;SDS011;66490;51.484;0.026;2024-02-21T10:14:08;6.97;;;1.48;;
77417;SDS011;66490;51.484;0.026;2024-02-21T10:17:01;5.80;;;1.23;;
77417;SDS011;66490;51.484;0.026;2024-02-21T10:19:46;6.28;;;1.42;;
77417;SDS011;66490;51.484;0.026;2024-02-21T10:22:33;6.07;;;1.13;;
77417;SDS011;66490;51.484;0.026;2024-02-21T10:25:27;10.23;;;1.55;;
77417;SDS011;66490;51.484;0.026;2024-02-21T10:28:12;5.28;;;1.40;;
77417;SDS011;66490;51.484;0.026;2024-02-21T10:31:01;5.45;;;1.23;;
77417;SDS011;66490;51.484;0.026;2024-02-21T10:33:59;7.72;;;1.30;;
77417;SDS011;66490;51.484;0.026;2024-02-21T10:36:43;4.90;;;0.90;;
77417;SDS011;66490;51.484;0.026;2024-02-21T10:39:27;5.03;;;1.02;;
77417;SDS011;66490;51.484;0.026;2024-02-21T10:42:11;5.80;;;1.35;;
77417;SDS011;66490;51.484;0.026;2024-02-21T10:44:55;5.03;;;0.95;;
77417;SDS011;66490;51.484;0.026;2024-02-21T10:47:44;3.78;;;1.50;;
77417;SDS011;66490;51.484;0.026;2024-02-21T10:50:32;4.73;;;0.70;;
77417;SDS011;66490;51.484;0.026;2024-02-21T10:53:24;4.38;;;1.20;;
77417;SDS011;66490;51.484;0.026;2024-02-21T10:59:04;7.28;;;1.13;;
77417;SDS011;66490;51.484;0.026;2024-02-21T11:01:49;5.97;;;1.30;;
77417;SDS011;66490;51.484;0.026;2024-02-21T11:04:33;6.53;;;1.57;;
77417;SDS011;66490;51.484;0.026;2024-02-21T11:07:37;3.92;;;1.10;;
77417;SDS011;66490;51.484;0.026;2024-02-21T11:11:04;5.38;;;1.50;;
77417;SDS011;66490;51.484;0.026;2024-02-21T11:13:37;3.53;;;1.10;;
77417;SDS011;66490;51.484;0.026;2024-02-21T11:16:23;5.40;;;1.35;;
77417;SDS011;66490;51.484;0.026;2024-02-21T11:19:23;6.53;;;1.10;;
77417;SDS011;66490;51.484;0.026;2024-02-21T11:22:15;3.78;;;0.65;;
77417;SDS011;66490;51.484;0.026;2024-02-21T11:25:08;3.97;;;0.70;;
77417;SDS011;66490;51.484;0.026;2024-02-21T11:28:05;5.95;;;0.88;;
77417;SDS011;66490;51.484;0.026;2024-02-21T11:30:50;4.95;;;1.20;;
77417;SDS011;66490;51.484;0.026;2024-02-21T11:33:35;4.83;;;1.20;;
77417;SDS011;66490;51.484;0.026;2024-02-21T11:36:25;3.42;;;0.80;;
77417;SDS011;66490;51.484;0.026;2024-02-21T11:39:09;5.15;;;0.70;;
77417;SDS011;66490;51.484;0.026;2024-02-21T11:42:03;4.93;;;0.63;;
77417;SDS011;66490;51.484;0.026;2024-02-21T11:44:47;6.10;;;1.10;;
77417;SDS011;66490;51.484;0.026;2024-02-21T11:47:32;5.40;;;1.07;;
77417;SDS011;66490;51.484;0.026;2024-02-21T11:50:16;2.10;;;0.52;;
77417;SDS011;66490;51.484;0.026;2024-02-21T11:53:00;3.25;;;0.60;;
77417;SDS011;66490;51.484;0.026;2024-02-21T11:55:45;4.43;;;0.65;;
77417;SDS011;66490;51.484;0.026;2024-02-21T11:58:29;2.17;;;0.52;;
77417;SDS011;66490;51.484;0.026;2024-02-21T12:01:14;2.77;;;0.77;;
77417;SDS011;66490;51.484;0.026;2024-02-21T12:03:58;2.38;;;0.50;;
77417;SDS011;66490;51.484;0.026;2024-02-21T12:06:45;3.58;;;0.70;;
77417;SDS011;66490;51.484;0.026;2024-02-21T12:09:29;3.95;;;0.82;;
77417;SDS011;66490;51.484;0.026;2024-02-21T12:12:13;4.18;;;2.22;;
77417;SDS011;66490;51.484;0.026;2024-02-21T12:14:57;3.40;;;0.67;;
77417;SDS011;66490;51.484;0.026;2024-02-21T12:17:48;2.30;;;0.70;;
77417;SDS011;66490;51.484;0.026;2024-02-21T12:20:38;2.78;;;0.40;;
77417;SDS011;66490;51.484;0.026;2024-02-21T12:23:29;2.38;;;0.50;;
77417;SDS011;66490;51.484;0.026;2024-02-21T12:26:13;3.38;;;0.50;;
77417;SDS011;66490;51.484;0.026;2024-02-21T12:28:57;4.60;;;0.50;;
77417;SDS011;66490;51.484;0.026;2024-02-21T12:31:44;2.05;;;0.40;;
77417;SDS011;66490;51.484;0.026;2024-02-21T12:34:42;1.70;;;0.45;;
77417;SDS011;66490;51.484;0.026;2024-02-21T12:37:26;3.42;;;0.47;;
77417;SDS011;66490;51.484;0.026;2024-02-21T12:40:10;2.47;;;0.95;;
77417;SDS011;66490;51.484;0.026;2024-02-21T12:43:03;1.63;;;0.70;;
77417;SDS011;66490;51.484;0.026;2024-02-21T12:45:48;2.63;;;0.52;;
77417;SDS011;66490;51.484;0.026;2024-02-21T12:48:39;4.75;;;1.52;;
77417;SDS011;66490;51.484;0.026;2024-02-21T12:51:23;2.17;;;0.40;;
77417;SDS011;66490;51.484;0.026;2024-02-21T12:54:10;2.97;;;0.52;;
77417;SDS011;66490;51.484;0.026;2024-02-21T12:57:00;3.40;;;0.40;;
77417;SDS011;66490;51.484;0.026;2024-02-21T12:59:46;4.90;;;0.40;;
77417;SDS011;66490;51.484;0.026;2024-02-21T13:02:32;2.80;;;0.68;;
77417;SDS011;66490;51.484;0.026;2024-02-21T13:05:16;4.30;;;0.80;;
77417;SDS011;66490;51.484;0.026;2024-02-21T13:08:00;3.40;;;0.90;;
77417;SDS011;66490;51.484;0.026;2024-02-21T13:10:47;2.47;;;0.50;;
77417;SDS011;66490;51.484;0.026;2024-02-21T13:13:31;2.22;;;0.50;;
77417;SDS011;66490;51.484;0.026;2024-02-21T13:16:15;2.05;;;0.50;;
77417;SDS011;66490;51.484;0.026;2024-02-21T13:19:02;2.95;;;0.45;;
77417;SDS011;66490;51.484;0.026;2024-02-21T13:21:46;2.95;;;0.80;;
77417;SDS011;66490;51.484;0.026;2024-02-21T13:24:34;2.50;;;0.50;;
77417;SDS011;66490;51.484;0.026;2024-02-21T13:27:22;1.92;;;0.75;;
77417;SDS011;66490;51.484;0.026;2024-02-21T13:30:06;3.67;;;0.93;;
77417;SDS011;66490;51.484;0.026;2024-02-21T13:32:52;6.05;;;0.85;;
77417;SDS011;66490;51.484;0.026;2024-02-21T13:35:47;2.25;;;0.40;;
77417;SDS011;66490;51.484;0.026;2024-02-21T13:38:33;4.80;;;0.60;;
77417;SDS011;66490;51.484;0.026;2024-02-21T13:41:20;1.85;;;0.75;;
77417;SDS011;66490;51.484;0.026;2024-02-21T13:44:15;2.90;;;0.70;;
77417;SDS011;66490;51.484;0.026;2024-02-21T13:47:05;2.97;;;0.50;;
77417;SDS011;66490;51.484;0.026;2024-02-21T13:50:00;3.88;;;0.65;;
77417;SDS011;66490;51.484;0.026;2024-02-21T13:52:45;3.07;;;0.60;;
77417;SDS011;66490;51.484;0.026;2024-02-21T13:55:29;4.35;;;0.57;;
77417;SDS011;66490;51.484;0.026;2024-02-21T13:58:15;2.53;;;0.68;;
77417;SDS011;66490;51.484;0.026;2024-02-21T14:00:59;2.30;;;0.35;;
77417;SDS011;66490;51.484;0.026;2024-02-21T14:03:55;2.30;;;0.70;;
77417;SDS011;66490;51.484;0.026;2024-02-21T14:06:39;3.80;;;0.57;;
77417;SDS011;66490;51.484;0.026;2024-02-21T14:09:27;2.22;;;0.40;;
77417;SDS011;66490;51.484;0.026;2024-02-21T14:12:13;3.85;;;0.60;;
77417;SDS011;66490;51.484;0.026;2024-02-21T14:15:00;3.15;;;0.80;;
77417;SDS011;66490;51.484;0.026;2024-02-21T14:17:44;4.15;;;0.70;;
77417;SDS011;66490;51.484;0.026;2024-02-21T14:20:28;3.03;;;0.63;;
77417;SDS011;66490;51.484;0.026;2024-02-21T14:23:12;3.15;;;0.63;;
77417;SDS011;66490;51.484;0.026;2024-02-21T14:25:57;3.53;;;0.77;;
77417;SDS011;66490;51.484;0.026;2024-02-21T14:32:14;1.42;;;0.40;;
77417;SDS011;66490;51.484;0.026;2024-02-21T14:35:01;3.57;;;0.73;;
77417;SDS011;66490;51.484;0.026;2024-02-21T14:51:59;2.67;;;0.50;;
77417;SDS011;66490;51.484;0.026;2024-02-21T14:54:46;3.28;;;0.57;;
77417;SDS011;66490;51.484;0.026;2024-02-21T14:57:41;3.38;;;0.45;;
77417;SDS011;66490;51.484;0.026;2024-02-21T15:00:27;2.08;;;0.40;;
77417;SDS011;66490;51.484;0.026;2024-02-21T15:03:25;2.25;;;0.85;;
77417;SDS011;66490;51.484;0.026;2024-02-21T15:06:13;2.57;;;0.90;;
77417;SDS011;66490;51.484;0.026;2024-02-21T15:09:00;6.95;;;1.25;;
77417;SDS011;66490;51.484;0.026;2024-02-21T15:11:51;2.42;;;0.73;;
77417;SDS011;66490;51.484;0.026;2024-02-21T15:14:35;3.25;;;0.77;;
77417;SDS011;66490;51.484;0.026;2024-02-21T15:17:19;4.25;;;1.10;;
77417;SDS011;66490;51.484;0.026;2024-02-21T15:20:04;2.57;;;0.47;;
77417;SDS011;66490;51.484;0.026;2024-02-21T15:22:53;1.85;;;0.40;;
77417;SDS011;66490;51.484;0.026;2024-02-21T15:25:37;4.00;;;1.33;;
77417;SDS011;66490;51.484;0.026;2024-02-21T15:28:30;3.35;;;0.80;;
77417;SDS011;66490;51.484;0.026;2024-02-21T15:34:30;2.23;;;0.33;;
77417;SDS011;66490;51.484;0.026;2024-02-21T15:37:14;3.10;;;0.57;;
77417;SDS011;66490;51.484;0.026;2024-02-21T15:39:59;3.00;;;0.82;;
77417;SDS011;66490;51.484;0.026;2024-02-21T15:42:47;2.88;;;0.60;;
77417;SDS011;66490;51.484;0.026;2024-02-21T15:45:31;5.25;;;1.20;;
77417;SDS011;66490;51.484;0.026;2024-02-21T15:48:15;5.73;;;0.70;;
77417;SDS011;66490;51.484;0.026;2024-02-21T15:50:59;4.03;;;1.05;;
77417;SDS011;66490;51.484;0.026;2024-02-21T15:53:44;3.03;;;1.05;;
77417;SDS011;66490;51.484;0.026;2024-02-21T15:56:38;3.45;;;1.10;;
77417;SDS011;66490;51.484;0.026;2024-02-21T15:59:25;4.63;;;0.90;;
77417;SDS011;66490;51.484;0.026;2024-02-21T16:02:18;3.30;;;0.77;;
77417;SDS011;66490;51.484;0.026;2024-02-21T16:05:20;3.95;;;0.85;;
77417;SDS011;66490;51.484;0.026;2024-02-21T16:08:04;4.80;;;1.05;;
77417;SDS011;66490;51.484;0.026;2024-02-21T16:10:48;3.40;;;0.70;;
77417;SDS011;66490;51.484;0.026;2024-02-21T16:13:32;3.28;;;0.93;;
77417;SDS011;66490;51.484;0.026;2024-02-21T16:16:16;3.77;;;0.83;;
77417;SDS011;66490;51.484;0.026;2024-02-21T16:19:00;6.90;;;1.25;;
77417;SDS011;66490;51.484;0.026;2024-02-21T16:21:45;2.35;;;0.77;;
77417;SDS011;66490;51.484;0.026;2024-02-21T16:24:29;4.78;;;0.63;;
77417;SDS011;66490;51.484;0.026;2024-02-21T16:27:16;3.45;;;1.42;;
77417;SDS011;66490;51.484;0.026;2024-02-21T16:30:03;4.57;;;0.80;;
77417;SDS011;66490;51.484;0.026;2024-02-21T16:32:51;4.20;;;0.82;;
77417;SDS011;66490;51.484;0.026;2024-02-21T16:38:33;4.50;;;0.85;;
77417;SDS011;66490;51.484;0.026;2024-02-21T16:41:19;3.08;;;1.20;;
77417;SDS011;66490;51.484;0.026;2024-02-21T16:44:03;4.13;;;0.50;;
77417;SDS011;66490;51.484;0.026;2024-02-21T16:46:50;5.82;;;0.77;;
77417;SDS011;66490;51.484;0.026;2024-02-21T16:49:36;3.83;;;1.10;;
77417;SDS011;66490;51.484;0.026;2024-02-21T16:52:21;3.42;;;0.70;;
77417;SDS011;66490;51.484;0.026;2024-02-21T16:55:05;3.50;;;1.05;;
77417;SDS011;66490;51.484;0.026;2024-02-21T16:57:49;5.77;;;0.80;;
77417;SDS011;66490;51.484;0.026;2024-02-21T17:00:33;6.10;;;1.15;;
77417;SDS011;66490;51.484;0.026;2024-02-21T17:03:23;4.82;;;1.25;;
77417;SDS011;66490;51.484;0.026;2024-02-21T17:06:17;2.78;;;1.02;;
77417;SDS011;66490;51.484;0.026;2024-02-21T17:09:20;7.97;;;1.55;;
77417;SDS011;66490;51.484;0.026;2024-02-21T17:12:13;5.10;;;0.93;;
77417;SDS011;66490;51.484;0.026;2024-02-21T17:15:05;2.63;;;0.95;;
77417;SDS011;66490;51.484;0.026;2024-02-21T17:21:36;4.93;;;1.00;;